sensor_id;sensor_type;location;lat;lon;timestamp;pressure;altitude;pressure_sealevel;temperature;humidity
29935;BME280;19905;53.370;-6.314;2023-03-15T00:00:14;100971.06;;;1.34;100.00
29935;BME280;19905;53.370;-6.314;2023-03-15T00:02:43;100971.91;;;1.35;100.00
29935;BME280;19905;53.370;-6.314;2023-03-15T00:05:11;100990.13;;;1.35;100.00
29935;BME280;19905;53.370;-6.314;2023-03-15T00:07:40;100996.31;;;1.31;100.00
29935;BME280;19905;53.370;-6.314;2023-03-15T00:10:11;101004.97;;;1.31;100.00
29935;BME280;19905;53.370;-6.314;2023-03-15T00:12:40;101003.22;;;1.32;100.00
29935;BME280;19905;53.370;-6.314;2023-03-15T00:15:15;101006.63;;;1.34;100.00
29935;BME280;19905;53.370;-6.314;2023-03-15T00:17:44;101008.34;;;1.35;100.00
29935;BME280;19905;53.370;-6.314;2023-03-15T00:20:13;101016.13;;;1.35;100.00
29935;BME280;19905;53.370;-6.314;2023-03-15T00:22:43;101019.53;;;1.37;100.00
29935;BME280;19905;53.370;-6.314;2023-03-15T00:25:12;101016.13;;;1.35;100.00
29935;BME280;19905;53.370;-6.314;2023-03-15T00:27:41;101012.53;;;1.39;100.00
29935;BME280;19905;53.370;-6.314;2023-03-15T00:30:10;101001.31;;;1.37;100.00
29935;BME280;19905;53.370;-6.314;2023-03-15T00:32:39;101002.22;;;1.36;100.00
29935;BME280;19905;53.370;-6.314;2023-03-15T00:35:09;100992.72;;;1.35;100.00
29935;BME280;19905;53.370;-6.314;2023-03-15T00:37:41;100988.41;;;1.34;100.00
29935;BME280;19905;53.370;-6.314;2023-03-15T00:40:13;100986.69;;;1.33;100.00
29935;BME280;19905;53.370;-6.314;2023-03-15T00:42:42;100992.03;;;1.30;100.00
29935;BME280;19905;53.370;-6.314;2023-03-15T00:45:16;100986.81;;;1.30;100.00
29935;BME280;19905;53.370;-6.314;2023-03-15T00:47:48;100986.81;;;1.30;100.00
29935;BME280;19905;53.370;-6.314;2023-03-15T00:50:17;100987.66;;;1.30;100.00
29935;BME280;19905;53.370;-6.314;2023-03-15T00:52:48;100986.13;;;1.24;100.00
29935;BME280;19905;53.370;-6.314;2023-03-15T00:55:20;100981.94;;;1.20;100.00
29935;BME280;19905;53.370;-6.314;2023-03-15T00:57:49;100991.50;;;1.18;100.00
29935;BME280;19905;53.370;-6.314;2023-03-15T01:00:19;100987.28;;;1.16;100.00
29935;BME280;19905;53.370;-6.314;2023-03-15T01:02:57;100990.03;;;1.11;100.00
29935;BME280;19905;53.370;-6.314;2023-03-15T01:05:26;100994.53;;;1.06;100.00
29935;BME280;19905;53.370;-6.314;2023-03-15T01:07:56;100980.78;;;1.02;100.00
29935;BME280;19905;53.370;-6.314;2023-03-15T01:10:26;100983.44;;;1.01;100.00
29935;BME280;19905;53.370;-6.314;2023-03-15T01:12:56;100993.88;;;0.99;100.00
29935;BME280;19905;53.370;-6.314;2023-03-15T01:15:25;101003.44;;;0.99;100.00
29935;BME280;19905;53.370;-6.314;2023-03-15T01:17:55;101011.31;;;0.96;100.00
29935;BME280;19905;53.370;-6.314;2023-03-15T01:20:25;101000.97;;;0.94;100.00
29935;BME280;19905;53.370;-6.314;2023-03-15T01:22:54;101005.28;;;0.95;100.00
29935;BME280;19905;53.370;-6.314;2023-03-15T01:25:26;101013.84;;;0.99;100.00
29935;BME280;19905;53.370;-6.314;2023-03-15T01:27:57;101000.03;;;0.97;100.00
29935;BME280;19905;53.370;-6.314;2023-03-15T01:30:31;101002.59;;;0.98;100.00
29935;BME280;19905;53.370;-6.314;2023-03-15T01:33:01;100990.38;;;1.00;100.00
29935;BME280;19905;53.370;-6.314;2023-03-15T01:35:29;100992.19;;;0.98;100.00
29935;BME280;19905;53.370;-6.314;2023-03-15T01:38:01;100992.97;;;1.00;100.00
29935;BME280;19905;53.370;-6.314;2023-03-15T01:40:31;100986.91;;;1.00;100.00
29935;BME280;19905;53.370;-6.314;2023-03-15T01:43:17;100981.78;;;0.98;100.00
29935;BME280;19905;53.370;-6.314;2023-03-15T01:46:13;100985.38;;;0.94;100.00
29935;BME280;19905;53.370;-6.314;2023-03-15T01:48:49;100981.97;;;0.92;100.00
29935;BME280;19905;53.370;-6.314;2023-03-15T01:51:22;100980.31;;;0.90;100.00
29935;BME280;19905;53.370;-6.314;2023-03-15T01:53:59;100988.41;;;0.81;100.00
29935;BME280;19905;53.370;-6.314;2023-03-15T01:56:35;100997.25;;;0.75;100.00
29935;BME280;19905;53.370;-6.314;2023-03-15T01:59:08;101003.41;;;0.72;100.00
29935;BME280;19905;53.370;-6.314;2023-03-15T02:01:39;101005.28;;;0.67;100.00
29935;BME280;19905;53.370;-6.314;2023-03-15T02:04:16;101016.81;;;0.59;100.00
29935;BME280;19905;53.370;-6.314;2023-03-15T02:06:53;101016.72;;;0.62;100.00
29935;BME280;19905;53.370;-6.314;2023-03-15T02:09:28;101012.31;;;0.64;100.00
29935;BME280;19905;53.370;-6.314;2023-03-15T02:12:03;101006.38;;;0.60;100.00
29935;BME280;19905;53.370;-6.314;2023-03-15T02:14:32;101009.97;;;0.56;100.00
29935;BME280;19905;53.370;-6.314;2023-03-15T02:17:01;101008.28;;;0.55;100.00
29935;BME280;19905;53.370;-6.314;2023-03-15T02:19:41;101006.56;;;0.54;100.00
29935;BME280;19905;53.370;-6.314;2023-03-15T02:22:21;101001.41;;;0.53;100.00
29935;BME280;19905;53.370;-6.314;2023-03-15T02:24:58;100998.81;;;0.53;100.00
29935;BME280;19905;53.370;-6.314;2023-03-15T02:27:34;100996.03;;;0.59;100.00
29935;BME280;19905;53.370;-6.314;2023-03-15T02:30:07;100987.22;;;0.64;100.00
29935;BME280;19905;53.370;-6.314;2023-03-15T02:35:31;100988.75;;;0.70;100.00
29935;BME280;19905;53.370;-6.314;2023-03-15T02:38:09;100984.47;;;0.69;100.00
29935;BME280;19905;53.370;-6.314;2023-03-15T02:40:45;100974.75;;;0.74;100.00
29935;BME280;19905;53.370;-6.314;2023-03-15T02:43:19;100969.44;;;0.77;100.00
29935;BME280;19905;53.370;-6.314;2023-03-15T02:45:52;100972.03;;;0.77;100.00
29935;BME280;19905;53.370;-6.314;2023-03-15T02:48:22;100964.22;;;0.79;100.00
29935;BME280;19905;53.370;-6.314;2023-03-15T02:50:51;100961.56;;;0.80;100.00
29935;BME280;19905;53.370;-6.314;2023-03-15T02:53:22;100957.22;;;0.81;100.00
29935;BME280;19905;53.370;-6.314;2023-03-15T02:55:50;100955.50;;;0.80;100.00
29935;BME280;19905;53.370;-6.314;2023-03-15T02:58:21;100949.50;;;0.77;100.00
29935;BME280;19905;53.370;-6.314;2023-03-15T03:01:01;100946.81;;;0.81;100.00
29935;BME280;19905;53.370;-6.314;2023-03-15T03:03:38;100941.66;;;0.79;100.00
29935;BME280;19905;53.370;-6.314;2023-03-15T03:06:10;100946.81;;;0.81;100.00
29935;BME280;19905;53.370;-6.314;2023-03-15T03:08:45;100941.59;;;0.81;100.00
29935;BME280;19905;53.370;-6.314;2023-03-15T03:11:16;100936.41;;;0.81;100.00
29935;BME280;19905;53.370;-6.314;2023-03-15T03:13:46;100934.50;;;0.86;100.00
29935;BME280;19905;53.370;-6.314;2023-03-15T03:16:15;100941.50;;;0.84;100.00
29935;BME280;19905;53.370;-6.314;2023-03-15T03:18:43;100934.41;;;0.89;100.00
29935;BME280;19905;53.370;-6.314;2023-03-15T03:21:12;100932.66;;;0.89;100.00
29935;BME280;19905;53.370;-6.314;2023-03-15T03:23:41;100926.53;;;0.92;100.00
29935;BME280;19905;53.370;-6.314;2023-03-15T03:26:14;100917.81;;;0.93;100.00
29935;BME280;19905;53.370;-6.314;2023-03-15T03:28:46;100918.66;;;0.93;100.00
29935;BME280;19905;53.370;-6.314;2023-03-15T03:31:16;100910.91;;;0.92;100.00
29935;BME280;19905;53.370;-6.314;2023-03-15T03:33:54;100908.41;;;0.89;100.00
29935;BME280;19905;53.370;-6.314;2023-03-15T03:36:23;100900.66;;;0.87;100.00
29935;BME280;19905;53.370;-6.314;2023-03-15T03:38:53;100902.38;;;0.88;100.00
29935;BME280;19905;53.370;-6.314;2023-03-15T03:41:23;100899.69;;;0.90;100.00
29935;BME280;19905;53.370;-6.314;2023-03-15T03:43:53;100906.56;;;0.92;100.00
29935;BME280;19905;53.370;-6.314;2023-03-15T03:46:22;100906.41;;;0.97;100.00
29935;BME280;19905;53.370;-6.314;2023-03-15T03:48:50;100906.41;;;0.97;100.00
29935;BME280;19905;53.370;-6.314;2023-03-15T03:51:19;100915.00;;;0.99;100.00
29935;BME280;19905;53.370;-6.314;2023-03-15T03:53:48;100911.47;;;1.00;100.00
29935;BME280;19905;53.370;-6.314;2023-03-15T03:56:16;100910.75;;;0.96;100.00
29935;BME280;19905;53.370;-6.314;2023-03-15T03:58:46;100902.97;;;0.96;100.00
29935;BME280;19905;53.370;-6.314;2023-03-15T04:01:17;100900.28;;;0.98;100.00
29935;BME280;19905;53.370;-6.314;2023-03-15T04:03:45;100890.97;;;0.92;100.00
29935;BME280;19905;53.370;-6.314;2023-03-15T04:06:14;100893.59;;;0.91;100.00
29935;BME280;19905;53.370;-6.314;2023-03-15T04:08:43;100889.22;;;0.91;100.00
29935;BME280;19905;53.370;-6.314;2023-03-15T04:11:11;100890.16;;;0.90;100.00
29935;BME280;19905;53.370;-6.314;2023-03-15T04:13:43;100898.06;;;0.87;100.00
29935;BME280;19905;53.370;-6.314;2023-03-15T04:16:13;100895.47;;;0.87;100.00
29935;BME280;19905;53.370;-6.314;2023-03-15T04:18:45;100891.00;;;0.91;100.00
29935;BME280;19905;53.370;-6.314;2023-03-15T04:21:16;100897.03;;;0.91;100.00
29935;BME280;19905;53.370;-6.314;2023-03-15T04:23:50;100896.94;;;0.94;100.00
29935;BME280;19905;53.370;-6.314;2023-03-15T04:26:27;100900.38;;;0.96;100.00
29935;BME280;19905;53.370;-6.314;2023-03-15T04:28:57;100894.19;;;0.99;100.00
29935;BME280;19905;53.370;-6.314;2023-03-15T04:31:27;100888.97;;;0.99;100.00
29935;BME280;19905;53.370;-6.314;2023-03-15T04:34:04;100887.91;;;1.05;100.00
29935;BME280;19905;53.370;-6.314;2023-03-15T04:36:33;100886.13;;;1.07;100.00
29935;BME280;19905;53.370;-6.314;2023-03-15T04:39:04;100894.78;;;1.07;100.00
29935;BME280;19905;53.370;-6.314;2023-03-15T04:41:34;100895.63;;;1.08;100.00
29935;BME280;19905;53.370;-6.314;2023-03-15T04:44:03;100899.91;;;1.09;100.00
29935;BME280;19905;53.370;-6.314;2023-03-15T04:46:32;100912.09;;;1.08;100.00
29935;BME280;19905;53.370;-6.314;2023-03-15T04:49:09;100905.94;;;1.11;100.00
29935;BME280;19905;53.370;-6.314;2023-03-15T04:51:45;100907.53;;;1.15;100.00
29935;BME280;19905;53.370;-6.314;2023-03-15T04:54:15;100897.91;;;1.17;100.00
29935;BME280;19905;53.370;-6.314;2023-03-15T04:56:43;100897.00;;;1.18;100.00
29935;BME280;19905;53.370;-6.314;2023-03-15T04:59:13;100890.19;;;1.15;100.00
29935;BME280;19905;53.370;-6.314;2023-03-15T05:01:43;100897.13;;;1.15;100.00
29935;BME280;19905;53.370;-6.314;2023-03-15T05:04:13;100903.97;;;1.17;100.00
29935;BME280;19905;53.370;-6.314;2023-03-15T05:06:42;100899.59;;;1.18;100.00
29935;BME280;19905;53.370;-6.314;2023-03-15T05:09:11;100896.22;;;1.16;100.00
29935;BME280;19905;53.370;-6.314;2023-03-15T05:11:45;100895.38;;;1.15;100.00
29935;BME280;19905;53.370;-6.314;2023-03-15T05:14:14;100890.03;;;1.18;100.00
29935;BME280;19905;53.370;-6.314;2023-03-15T05:16:44;100893.47;;;1.20;100.00
29935;BME280;19905;53.370;-6.314;2023-03-15T05:19:15;100888.25;;;1.20;100.00
29935;BME280;19905;53.370;-6.314;2023-03-15T05:21:44;100885.59;;;1.22;100.00
29935;BME280;19905;53.370;-6.314;2023-03-15T05:24:13;100887.25;;;1.24;100.00
29935;BME280;19905;53.370;-6.314;2023-03-15T05:26:42;100889.09;;;1.21;100.00
29935;BME280;19905;53.370;-6.314;2023-03-15T05:29:13;100892.56;;;1.21;100.00
29935;BME280;19905;53.370;-6.314;2023-03-15T05:31:48;100889.88;;;1.23;100.00
29935;BME280;19905;53.370;-6.314;2023-03-15T05:34:20;100891.66;;;1.22;100.00
29935;BME280;19905;53.370;-6.314;2023-03-15T05:36:50;100882.94;;;1.23;100.00
29935;BME280;19905;53.370;-6.314;2023-03-15T05:39:21;100878.53;;;1.25;100.00
29935;BME280;19905;53.370;-6.314;2023-03-15T05:41:50;100883.81;;;1.24;100.00
29935;BME280;19905;53.370;-6.314;2023-03-15T05:44:20;100879.38;;;1.26;100.00
29935;BME280;19905;53.370;-6.314;2023-03-15T05:46:49;100884.53;;;1.27;100.00
29935;BME280;19905;53.370;-6.314;2023-03-15T05:49:20;100873.16;;;1.30;100.00
29935;BME280;19905;53.370;-6.314;2023-03-15T05:51:53;100874.88;;;1.31;100.00
29935;BME280;19905;53.370;-6.314;2023-03-15T05:54:21;100875.53;;;1.36;100.00
29935;BME280;19905;53.370;-6.314;2023-03-15T05:56:50;100871.16;;;1.38;100.00
29935;BME280;19905;53.370;-6.314;2023-03-15T05:59:18;100879.63;;;1.43;100.00
29935;BME280;19905;53.370;-6.314;2023-03-15T06:01:47;100877.88;;;1.44;100.00
29935;BME280;19905;53.370;-6.314;2023-03-15T06:04:22;100865.63;;;1.47;100.00
29935;BME280;19905;53.370;-6.314;2023-03-15T06:06:53;100864.63;;;1.50;100.00
29935;BME280;19905;53.370;-6.314;2023-03-15T06:09:21;100866.28;;;1.52;100.00
29935;BME280;19905;53.370;-6.314;2023-03-15T06:11:50;100856.72;;;1.53;100.00
29935;BME280;19905;53.370;-6.314;2023-03-15T06:14:22;100854.91;;;1.55;100.00
29935;BME280;19905;53.370;-6.314;2023-03-15T06:16:51;100844.44;;;1.57;100.00
29935;BME280;19905;53.370;-6.314;2023-03-15T06:19:20;100844.56;;;1.53;100.00
29935;BME280;19905;53.370;-6.314;2023-03-15T06:21:50;100839.34;;;1.53;100.00
29935;BME280;19905;53.370;-6.314;2023-03-15T06:24:19;100840.13;;;1.56;100.00
29935;BME280;19905;53.370;-6.314;2023-03-15T06:26:48;100833.19;;;1.56;100.00
29935;BME280;19905;53.370;-6.314;2023-03-15T06:29:16;100840.09;;;1.57;100.00
29935;BME280;19905;53.370;-6.314;2023-03-15T06:31:45;100841.72;;;1.60;100.00
29935;BME280;19905;53.370;-6.314;2023-03-15T06:34:18;100829.38;;;1.65;100.00
29935;BME280;19905;53.370;-6.314;2023-03-15T06:36:48;100826.00;;;1.63;100.00
29935;BME280;19905;53.370;-6.314;2023-03-15T06:39:20;100824.13;;;1.66;100.00
29935;BME280;19905;53.370;-6.314;2023-03-15T06:41:51;100824.22;;;1.63;100.00
29935;BME280;19905;53.370;-6.314;2023-03-15T06:44:24;100821.63;;;1.63;100.00
29935;BME280;19905;53.370;-6.314;2023-03-15T06:46:53;100821.53;;;1.66;100.00
29935;BME280;19905;53.370;-6.314;2023-03-15T06:49:22;100824.00;;;1.69;100.00
29935;BME280;19905;53.370;-6.314;2023-03-15T06:51:51;100820.59;;;1.67;100.00
29935;BME280;19905;53.370;-6.314;2023-03-15T06:54:21;100817.09;;;1.68;100.00
29935;BME280;19905;53.370;-6.314;2023-03-15T06:56:50;100825.56;;;1.73;100.00
29935;BME280;19905;53.370;-6.314;2023-03-15T06:59:19;100815.91;;;1.77;100.00
29935;BME280;19905;53.370;-6.314;2023-03-15T07:01:48;100813.22;;;1.78;100.00
29935;BME280;19905;53.370;-6.314;2023-03-15T07:04:17;100806.09;;;1.84;100.00
29935;BME280;19905;53.370;-6.314;2023-03-15T07:06:46;100807.56;;;1.91;100.00
29935;BME280;19905;53.370;-6.314;2023-03-15T07:09:14;100815.00;;;2.00;100.00
29935;BME280;19905;53.370;-6.314;2023-03-15T07:11:44;100800.94;;;2.04;100.00
29935;BME280;19905;53.370;-6.314;2023-03-15T07:14:13;100799.84;;;2.10;100.00
29935;BME280;19905;53.370;-6.314;2023-03-15T07:16:42;100797.97;;;2.13;100.00
29935;BME280;19905;53.370;-6.314;2023-03-15T07:19:10;100796.09;;;2.17;100.00
29935;BME280;19905;53.370;-6.314;2023-03-15T07:21:39;100782.94;;;2.20;100.00
29935;BME280;19905;53.370;-6.314;2023-03-15T07:24:07;100784.59;;;2.22;100.00
29935;BME280;19905;53.370;-6.314;2023-03-15T07:26:36;100780.13;;;2.24;100.00
29935;BME280;19905;53.370;-6.314;2023-03-15T07:29:06;100773.13;;;2.26;100.00
29935;BME280;19905;53.370;-6.314;2023-03-15T07:31:35;100775.47;;;2.33;100.00
29935;BME280;19905;53.370;-6.314;2023-03-15T07:34:06;100771.56;;;2.43;100.00
29935;BME280;19905;53.370;-6.314;2023-03-15T07:36:35;100773.88;;;2.50;100.00
29935;BME280;19905;53.370;-6.314;2023-03-15T07:39:03;100777.84;;;2.59;100.00
29935;BME280;19905;53.370;-6.314;2023-03-15T07:41:32;100780.13;;;2.67;100.00
29935;BME280;19905;53.370;-6.314;2023-03-15T07:44:01;100781.56;;;2.74;100.00
29935;BME280;19905;53.370;-6.314;2023-03-15T07:46:32;100776.13;;;2.78;100.00
29935;BME280;19905;53.370;-6.314;2023-03-15T07:49:01;100762.06;;;2.83;100.00
29935;BME280;19905;53.370;-6.314;2023-03-15T07:51:29;100767.16;;;2.86;100.00
29935;BME280;19905;53.370;-6.314;2023-03-15T07:53:58;100767.03;;;2.89;100.00
29935;BME280;19905;53.370;-6.314;2023-03-15T07:56:27;100766.16;;;2.88;100.00
29935;BME280;19905;53.370;-6.314;2023-03-15T07:58:55;100769.56;;;2.90;100.00
29935;BME280;19905;53.370;-6.314;2023-03-15T08:01:24;100773.84;;;2.91;100.00
29935;BME280;19905;53.370;-6.314;2023-03-15T08:03:54;100771.16;;;2.93;100.00
29935;BME280;19905;53.370;-6.314;2023-03-15T08:06:23;100765.81;;;2.96;100.00
29935;BME280;19905;53.370;-6.314;2023-03-15T08:08:52;100764.84;;;2.98;100.00
29935;BME280;19905;53.370;-6.314;2023-03-15T08:11:20;100765.53;;;3.02;100.00
29935;BME280;19905;53.370;-6.314;2023-03-15T08:13:49;100762.81;;;3.05;100.00
29935;BME280;19905;53.370;-6.314;2023-03-15T08:16:17;100767.06;;;3.08;100.00
29935;BME280;19905;53.370;-6.314;2023-03-15T08:18:46;100771.28;;;3.10;100.00
29935;BME280;19905;53.370;-6.314;2023-03-15T08:21:16;100768.66;;;3.10;100.00
29935;BME280;19905;53.370;-6.314;2023-03-15T08:23:45;100760.59;;;3.16;100.00
29935;BME280;19905;53.370;-6.314;2023-03-15T08:26:14;100761.34;;;3.18;100.00
29935;BME280;19905;53.370;-6.314;2023-03-15T08:28:42;100759.66;;;3.17;100.00
29935;BME280;19905;53.370;-6.314;2023-03-15T08:31:10;100758.03;;;3.15;100.00
29935;BME280;19905;53.370;-6.314;2023-03-15T08:33:40;100760.59;;;3.16;100.00
29935;BME280;19905;53.370;-6.314;2023-03-15T08:36:08;100758.88;;;3.15;100.00
29935;BME280;19905;53.370;-6.314;2023-03-15T08:38:39;100759.66;;;3.17;100.00
29935;BME280;19905;53.370;-6.314;2023-03-15T08:41:08;100760.44;;;3.19;100.00
29935;BME280;19905;53.370;-6.314;2023-03-15T08:43:37;100762.84;;;3.24;100.00
29935;BME280;19905;53.370;-6.314;2023-03-15T08:46:05;100759.25;;;3.26;100.00
29935;BME280;19905;53.370;-6.314;2023-03-15T08:48:34;100761.78;;;3.28;100.00
29935;BME280;19905;53.370;-6.314;2023-03-15T08:51:04;100760.84;;;3.29;100.00
29935;BME280;19905;53.370;-6.314;2023-03-15T08:53:35;100752.13;;;3.30;100.00
29935;BME280;19905;53.370;-6.314;2023-03-15T08:56:06;100748.44;;;3.34;100.00
29935;BME280;19905;53.370;-6.314;2023-03-15T08:58:35;100744.00;;;3.36;100.00
29935;BME280;19905;53.370;-6.314;2023-03-15T09:01:04;100739.41;;;3.41;100.00
29935;BME280;19905;53.370;-6.314;2023-03-15T09:03:33;100747.97;;;3.45;100.00
29935;BME280;19905;53.370;-6.314;2023-03-15T09:06:02;100745.06;;;3.51;100.00
29935;BME280;19905;53.370;-6.314;2023-03-15T09:08:30;100748.38;;;3.54;100.00
29935;BME280;19905;53.370;-6.314;2023-03-15T09:11:00;100750.84;;;3.58;100.00
29935;BME280;19905;53.370;-6.314;2023-03-15T09:13:31;100742.00;;;3.60;100.00
29935;BME280;19905;53.370;-6.314;2023-03-15T09:16:00;100737.59;;;3.62;100.00
29935;BME280;19905;53.370;-6.314;2023-03-15T09:18:30;100739.28;;;3.63;100.00
29935;BME280;19905;53.370;-6.314;2023-03-15T09:21:00;100729.59;;;3.65;100.00
29935;BME280;19905;53.370;-6.314;2023-03-15T09:23:29;100732.97;;;3.67;100.00
29935;BME280;19905;53.370;-6.314;2023-03-15T09:25:58;100726.69;;;3.71;100.00
29935;BME280;19905;53.370;-6.314;2023-03-15T09:28:26;100731.72;;;3.76;100.00
29935;BME280;19905;53.370;-6.314;2023-03-15T09:30:56;100740.22;;;3.79;100.00
29935;BME280;19905;53.370;-6.314;2023-03-15T09:33:27;100737.59;;;3.79;100.00
29935;BME280;19905;53.370;-6.314;2023-03-15T09:35:55;100734.16;;;3.79;100.00
29935;BME280;19905;53.370;-6.314;2023-03-15T09:38:24;100730.78;;;3.77;100.00
29935;BME280;19905;53.370;-6.314;2023-03-15T09:40:55;100730.69;;;3.78;100.00
29935;BME280;19905;53.370;-6.314;2023-03-15T09:43:47;100730.63;;;3.80;100.00
29935;BME280;19905;53.370;-6.314;2023-03-15T09:46:27;100728.00;;;3.80;100.00
29935;BME280;19905;53.370;-6.314;2023-03-15T09:49:03;100727.03;;;3.82;100.00
29935;BME280;19905;53.370;-6.314;2023-03-15T09:51:39;100721.66;;;3.86;100.00
29935;BME280;19905;53.370;-6.314;2023-03-15T09:54:12;100709.44;;;3.86;100.00
29935;BME280;19905;53.370;-6.314;2023-03-15T09:56:49;100702.66;;;3.82;100.00
29935;BME280;19905;53.370;-6.314;2023-03-15T09:59:23;100704.25;;;3.85;100.00
29935;BME280;19905;53.370;-6.314;2023-03-15T10:01:57;100700.81;;;3.84;100.00
29935;BME280;19905;53.370;-6.314;2023-03-15T10:04:28;100703.28;;;3.87;100.00
29935;BME280;19905;53.370;-6.314;2023-03-15T10:06:59;100697.00;;;3.91;100.00
29935;BME280;19905;53.370;-6.314;2023-03-15T10:09:31;100694.28;;;3.93;100.00
29935;BME280;19905;53.370;-6.314;2023-03-15T10:12:05;100689.84;;;3.95;100.00
29935;BME280;19905;53.370;-6.314;2023-03-15T10:15:00;100688.59;;;4.02;100.00
29935;BME280;19905;53.370;-6.314;2023-03-15T10:17:36;100681.38;;;4.07;100.00
29935;BME280;19905;53.370;-6.314;2023-03-15T10:20:12;100685.53;;;4.11;100.00
29935;BME280;19905;53.370;-6.314;2023-03-15T10:22:49;100672.41;;;4.13;100.00
29935;BME280;19905;53.370;-6.314;2023-03-15T10:25:24;100659.94;;;4.18;100.00
29935;BME280;19905;53.370;-6.314;2023-03-15T10:27:56;100656.31;;;4.20;100.00
29935;BME280;19905;53.370;-6.314;2023-03-15T10:30:28;100648.34;;;4.23;100.00
29935;BME280;19905;53.370;-6.314;2023-03-15T10:33:01;100653.47;;;4.25;100.00
29935;BME280;19905;53.370;-6.314;2023-03-15T10:35:31;100650.72;;;4.28;100.00
29935;BME280;19905;53.370;-6.314;2023-03-15T10:38:00;100649.44;;;4.35;100.00
29935;BME280;19905;53.370;-6.314;2023-03-15T10:40:41;100648.22;;;4.42;100.00
29935;BME280;19905;53.370;-6.314;2023-03-15T10:43:19;100646.13;;;4.49;100.00
29935;BME280;19905;53.370;-6.314;2023-03-15T10:45:59;100647.50;;;4.56;100.00
29935;BME280;19905;53.370;-6.314;2023-03-15T10:48:32;100641.88;;;4.64;100.00
29935;BME280;19905;53.370;-6.314;2023-03-15T10:51:04;100634.63;;;4.69;100.00
29935;BME280;19905;53.370;-6.314;2023-03-15T10:53:33;100626.53;;;4.73;100.00
29935;BME280;19905;53.370;-6.314;2023-03-15T10:56:06;100627.28;;;4.75;100.00
29935;BME280;19905;53.370;-6.314;2023-03-15T10:58:41;100616.50;;;4.81;100.00
29935;BME280;19905;53.370;-6.314;2023-03-15T11:01:24;100614.63;;;4.83;100.00
29935;BME280;19905;53.370;-6.314;2023-03-15T11:04:12;100613.47;;;4.89;100.00
29935;BME280;19905;53.370;-6.314;2023-03-15T11:06:45;100601.91;;;4.93;100.00
29935;BME280;19905;53.370;-6.314;2023-03-15T11:09:16;100603.31;;;4.99;100.00
29935;BME280;19905;53.370;-6.314;2023-03-15T11:11:57;100603.75;;;5.07;100.00
29935;BME280;19905;53.370;-6.314;2023-03-15T11:14:32;100589.56;;;5.11;100.00
29935;BME280;19905;53.370;-6.314;2023-03-15T11:17:03;100592.03;;;5.14;100.00
29935;BME280;19905;53.370;-6.314;2023-03-15T11:19:38;100575.97;;;5.20;100.00
29935;BME280;19905;53.370;-6.314;2023-03-15T11:22:11;100575.72;;;5.25;100.00
29935;BME280;19905;53.370;-6.314;2023-03-15T11:24:41;100575.59;;;5.26;100.00
29935;BME280;19905;53.370;-6.314;2023-03-15T11:27:11;100563.19;;;5.30;100.00
29935;BME280;19905;53.370;-6.314;2023-03-15T11:29:45;100553.50;;;5.32;100.00
29935;BME280;19905;53.370;-6.314;2023-03-15T11:32:18;100556.09;;;5.32;100.00
29935;BME280;19905;53.370;-6.314;2023-03-15T11:34:57;100542.75;;;5.37;100.00
29935;BME280;19905;53.370;-6.314;2023-03-15T11:37:32;100545.00;;;5.43;100.00
29935;BME280;19905;53.370;-6.314;2023-03-15T11:40:11;100535.19;;;5.46;100.00
29935;BME280;19905;53.370;-6.314;2023-03-15T11:42:47;100535.88;;;5.50;100.00
29935;BME280;19905;53.370;-6.314;2023-03-15T11:45:21;100522.56;;;5.53;100.00
29935;BME280;19905;53.370;-6.314;2023-03-15T11:47:53;100515.97;;;5.61;100.00
29935;BME280;19905;53.370;-6.314;2023-03-15T11:50:25;100516.81;;;5.62;100.00
29935;BME280;19905;53.370;-6.314;2023-03-15T11:52:54;100501.75;;;5.66;100.00
29935;BME280;19905;53.370;-6.314;2023-03-15T11:55:29;100507.44;;;5.72;100.00
29935;BME280;19905;53.370;-6.314;2023-03-15T11:58:28;100504.50;;;5.78;100.00
29935;BME280;19905;53.370;-6.314;2023-03-15T12:01:00;100493.06;;;5.79;100.00
29935;BME280;19905;53.370;-6.314;2023-03-15T12:03:36;100487.53;;;5.84;100.00
29935;BME280;19905;53.370;-6.314;2023-03-15T12:06:34;100482.03;;;5.89;100.00
29935;BME280;19905;53.370;-6.314;2023-03-15T12:12:34;100470.06;;;5.99;100.00
29935;BME280;19905;53.370;-6.314;2023-03-15T12:18:37;100457.78;;;6.14;100.00
29935;BME280;19905;53.370;-6.314;2023-03-15T12:21:13;100446.09;;;6.19;100.00
29935;BME280;19905;53.370;-6.314;2023-03-15T12:23:46;100445.69;;;6.25;100.00
29935;BME280;19905;53.370;-6.314;2023-03-15T12:26:24;100441.19;;;6.27;100.00
29935;BME280;19905;53.370;-6.314;2023-03-15T12:29:14;100431.47;;;6.29;100.00
29935;BME280;19905;53.370;-6.314;2023-03-15T12:31:53;100421.53;;;6.34;100.00
29935;BME280;19905;53.370;-6.314;2023-03-15T12:34:29;100414.31;;;6.38;100.00
29935;BME280;19905;53.370;-6.314;2023-03-15T12:37:02;100411.88;;;6.35;100.00
29935;BME280;19905;53.370;-6.314;2023-03-15T12:39:41;100403.69;;;6.40;100.00
29935;BME280;19905;53.370;-6.314;2023-03-15T12:45:46;100385.88;;;6.45;100.00
29935;BME280;19905;53.370;-6.314;2023-03-15T12:48:34;100367.31;;;6.48;100.00
29935;BME280;19905;53.370;-6.314;2023-03-15T12:51:05;100375.94;;;6.50;100.00
29935;BME280;19905;53.370;-6.314;2023-03-15T12:53:45;100371.22;;;6.55;100.00
29935;BME280;19905;53.370;-6.314;2023-03-15T12:56:41;100358.75;;;6.58;100.00
29935;BME280;19905;53.370;-6.314;2023-03-15T12:59:24;100349.09;;;6.59;100.00
29935;BME280;19905;53.370;-6.314;2023-03-15T13:01:55;100347.28;;;6.59;100.00
29935;BME280;19905;53.370;-6.314;2023-03-15T13:04:27;100341.03;;;6.62;100.00
29935;BME280;19905;53.370;-6.314;2023-03-15T13:07:14;100341.66;;;6.66;100.00
29935;BME280;19905;53.370;-6.314;2023-03-15T13:10:14;100330.22;;;6.67;100.00
29935;BME280;19905;53.370;-6.314;2023-03-15T13:12:50;100327.28;;;6.71;100.00
29935;BME280;19905;53.370;-6.314;2023-03-15T13:15:24;100324.47;;;6.74;100.00
29935;BME280;19905;53.370;-6.314;2023-03-15T13:17:57;100318.28;;;6.75;100.00